createdAt,value
2018-09-21T00:00:05.457Z,82.30
2018-09-21T00:02:39.988Z,83.40
2018-09-21T00:05:14.298Z,83.50
2018-09-21T00:07:48.758Z,83.40
2018-09-21T00:10:24.114Z,83.60
2018-09-21T00:12:58.849Z,83.10
2018-09-21T00:15:33.176Z,84.60
2018-09-21T00:18:07.118Z,84.20
2018-09-21T00:20:41.828Z,84.60
2018-09-21T00:23:16.933Z,84.90
2018-09-21T00:25:51.677Z,85.70
2018-09-21T00:28:25.850Z,85.40
2018-09-21T00:30:59.838Z,85.80
2018-09-21T00:33:34.223Z,86.00
2018-09-21T00:36:09.198Z,85.90
2018-09-21T00:38:43.244Z,85.30
2018-09-21T00:41:17.206Z,85.40
2018-09-21T00:43:51.389Z,85.80
2018-09-21T00:46:25.398Z,85.90
2018-09-21T00:48:59.674Z,86.00
2018-09-21T00:51:33.938Z,86.20
2018-09-21T00:54:08.254Z,86.30
2018-09-21T00:56:43.786Z,86.50
2018-09-21T00:59:19.008Z,86.80
2018-09-21T01:01:52.925Z,87.00
2018-09-21T01:04:32.187Z,86.60
2018-09-21T01:07:06.359Z,86.70
2018-09-21T01:09:41.244Z,87.20
2018-09-21T01:12:15.268Z,87.10
2018-09-21T01:14:49.299Z,86.70
2018-09-21T01:17:24.187Z,87.10
2018-09-21T01:19:58.351Z,87.60
2018-09-21T01:22:32.900Z,86.80
2018-09-21T01:25:06.938Z,86.60
2018-09-21T01:27:41.455Z,86.60
2018-09-21T01:30:15.544Z,86.40
2018-09-21T01:32:49.590Z,86.70
2018-09-21T01:35:25.337Z,86.70
2018-09-21T01:37:59.283Z,86.60
2018-09-21T01:40:33.454Z,86.70
2018-09-21T01:43:07.610Z,87.00
2018-09-21T01:45:42.319Z,87.40
2018-09-21T01:48:16.159Z,87.20
2018-09-21T01:50:50.607Z,87.20
2018-09-21T01:53:24.942Z,87.20
2018-09-21T01:55:59.143Z,87.40
2018-09-21T01:58:33.094Z,87.50
2018-09-21T02:01:07.379Z,87.90
2018-09-21T02:03:42.024Z,88.10
2018-09-21T02:06:16.914Z,88.60
2018-09-21T02:08:51.853Z,88.70
2018-09-21T02:11:26.383Z,88.80
2018-09-21T02:14:00.447Z,89.00
2018-09-21T02:16:34.809Z,89.20
2018-09-21T02:19:08.878Z,89.20
2018-09-21T02:21:43.640Z,89.30
2018-09-21T02:24:18.808Z,89.40
2018-09-21T02:26:53.495Z,89.90
2018-09-21T02:29:27.848Z,90.10
2018-09-21T02:32:01.994Z,90.10
2018-09-21T02:34:36.748Z,90.40
2018-09-21T02:37:10.801Z,90.30
2018-09-21T02:39:45.279Z,90.40
2018-09-21T02:42:19.713Z,90.50
2018-09-21T02:44:53.685Z,90.60
2018-09-21T02:47:28.553Z,90.70
2018-09-21T02:50:02.930Z,90.60
2018-09-21T02:52:37.698Z,90.50
2018-09-21T02:55:11.800Z,90.70
2018-09-21T02:57:46.565Z,90.90
2018-09-21T03:00:20.826Z,90.80
2018-09-21T03:02:55.263Z,90.80
2018-09-21T03:05:29.252Z,91.10
2018-09-21T03:08:04.242Z,91.10
2018-09-21T03:10:39.020Z,91.40
2018-09-21T03:13:13.050Z,91.60
2018-09-21T03:15:47.498Z,91.50
2018-09-21T03:18:21.649Z,91.50
2018-09-21T03:20:55.782Z,91.50
2018-09-21T03:23:29.464Z,92.10
2018-09-21T03:26:03.930Z,91.70
2018-09-21T03:28:38.068Z,91.50
2018-09-21T03:31:13.026Z,91.20
2018-09-21T03:33:47.503Z,91.30
2018-09-21T03:36:21.226Z,90.60
2018-09-21T03:38:55.975Z,90.50
2018-09-21T03:41:29.904Z,90.00
2018-09-21T03:44:04.198Z,89.50
2018-09-21T03:46:38.783Z,87.70
2018-09-21T03:49:12.850Z,87.50
2018-09-21T03:51:46.845Z,86.70
2018-09-21T03:54:21.514Z,86.00
2018-09-21T03:56:56.044Z,86.50
2018-09-21T03:59:30.316Z,85.90
2018-09-21T04:02:04.434Z,85.30
2018-09-21T04:04:41.099Z,85.50
2018-09-21T04:07:14.928Z,84.80
2018-09-21T04:09:49.327Z,84.60
2018-09-21T04:12:24.562Z,84.70
2018-09-21T04:14:58.677Z,84.20
2018-09-21T04:17:32.997Z,84.30
2018-09-21T04:20:06.909Z,83.50
2018-09-21T04:22:45.863Z,82.70
2018-09-21T04:25:19.923Z,83.10
2018-09-21T04:27:54.233Z,83.80
2018-09-21T04:30:29.126Z,82.80
2018-09-21T04:33:03.097Z,82.30
2018-09-21T04:35:38.020Z,81.80
2018-09-21T04:38:12.139Z,81.00
2018-09-21T04:40:46.122Z,80.10
2018-09-21T04:43:20.273Z,79.30
2018-09-21T04:45:54.650Z,79.40
2018-09-21T04:48:28.737Z,78.30
2018-09-21T04:51:03.719Z,77.90
2018-09-21T04:53:38.899Z,77.50
2018-09-21T04:56:13.329Z,77.70
2018-09-21T04:58:47.792Z,77.70
2018-09-21T05:01:22.166Z,77.30
2018-09-21T05:03:57.201Z,76.90
2018-09-21T05:06:31.722Z,76.80
2018-09-21T05:09:08.036Z,76.80
2018-09-21T05:11:42.653Z,76.60
2018-09-21T05:14:16.588Z,76.70
2018-09-21T05:16:51.662Z,75.30
2018-09-21T05:19:26.132Z,76.00
2018-09-21T05:22:01.180Z,75.70
2018-09-21T05:24:35.087Z,75.40
2018-09-21T05:27:09.969Z,75.40
2018-09-21T05:29:44.131Z,75.10
2018-09-21T05:32:18.855Z,75.00
2018-09-21T05:34:52.977Z,74.70
2018-09-21T05:37:27.043Z,74.70
2018-09-21T05:40:00.863Z,74.60
2018-09-21T05:42:34.947Z,74.40
2018-09-21T05:45:09.009Z,74.30
2018-09-21T05:47:43.102Z,74.20
2018-09-21T05:50:17.253Z,74.10
2018-09-21T05:52:51.329Z,74.20
2018-09-21T05:55:25.363Z,74.50
2018-09-21T05:57:59.425Z,74.70
2018-09-21T06:00:33.628Z,74.60
2018-09-21T06:03:07.799Z,74.60
2018-09-21T06:05:41.862Z,74.40
2018-09-21T06:08:16.823Z,74.50
2018-09-21T06:10:50.907Z,74.00
2018-09-21T06:13:25.159Z,74.00
2018-09-21T06:15:59.148Z,73.90
2018-09-21T06:18:34.243Z,73.10
2018-09-21T06:21:08.708Z,72.80
2018-09-21T06:23:43.199Z,72.50
2018-09-21T06:26:17.173Z,72.20
2018-09-21T06:28:51.656Z,71.90
2018-09-21T06:31:26.132Z,71.40
2018-09-21T06:34:00.258Z,70.90
2018-09-21T06:36:34.802Z,70.50
2018-09-21T06:39:10.751Z,70.30
2018-09-21T06:41:45.367Z,70.20
2018-09-21T06:44:20.546Z,70.20
2018-09-21T06:46:54.502Z,70.10
2018-09-21T06:49:29.252Z,70.30
2018-09-21T06:52:03.444Z,70.20
2018-09-21T06:54:37.859Z,69.70
2018-09-21T06:57:12.262Z,69.90
2018-09-21T06:59:46.809Z,70.20
2018-09-21T07:02:21.509Z,70.00
2018-09-21T07:05:00.682Z,69.40
2018-09-21T07:07:34.985Z,70.40
2018-09-21T07:10:09.593Z,70.40
2018-09-21T07:12:43.899Z,70.30
2018-09-21T07:15:18.486Z,70.20
2018-09-21T07:17:52.511Z,70.30
2018-09-21T07:20:27.524Z,71.00
2018-09-21T07:23:02.638Z,71.20
2018-09-21T07:25:37.367Z,71.10
2018-09-21T07:28:11.108Z,70.50
2018-09-21T07:30:45.331Z,70.60
2018-09-21T07:33:20.305Z,70.40
2018-09-21T07:35:55.454Z,70.30
2018-09-21T07:38:30.279Z,70.00
2018-09-21T07:41:04.890Z,69.90
2018-09-21T07:43:39.874Z,69.60
2018-09-21T07:46:14.805Z,68.50
2018-09-21T07:48:50.224Z,67.40
2018-09-21T07:51:24.916Z,67.20
2018-09-21T07:53:59.233Z,67.30
2018-09-21T07:56:33.745Z,66.10
2018-09-21T07:59:08.138Z,66.20
2018-09-21T08:01:42.316Z,66.10
2018-09-21T08:04:16.939Z,64.80
2018-09-21T08:06:51.924Z,64.30
2018-09-21T08:09:26.427Z,64.50
2018-09-21T08:12:00.531Z,64.30
2018-09-21T08:14:35.052Z,64.20
2018-09-21T08:17:09.148Z,63.40
2018-09-21T08:19:44.153Z,63.50
2018-09-21T08:22:18.569Z,63.90
2018-09-21T08:24:53.660Z,63.10
2018-09-21T08:27:27.930Z,62.80
2018-09-21T08:30:02.920Z,63.00
2018-09-21T08:32:37.314Z,63.10
2018-09-21T08:35:11.380Z,63.30
2018-09-21T08:37:45.663Z,63.30
2018-09-21T08:40:21.787Z,63.00
2018-09-21T08:42:55.743Z,63.30
2018-09-21T08:45:30.071Z,63.50
2018-09-21T08:48:04.909Z,63.80
2018-09-21T08:50:38.907Z,64.00
2018-09-21T08:53:13.351Z,64.20
2018-09-21T08:55:47.463Z,64.80
2018-09-21T08:58:21.519Z,64.60
2018-09-21T09:00:55.555Z,65.00
2018-09-21T09:03:30.537Z,64.80
2018-09-21T09:06:04.746Z,64.80
2018-09-21T09:08:38.961Z,65.00
2018-09-21T09:11:13.796Z,65.00
2018-09-21T09:13:48.740Z,65.10
2018-09-21T09:16:22.879Z,65.00
2018-09-21T09:18:56.973Z,64.60
2018-09-21T09:21:31.879Z,65.00
2018-09-21T09:24:06.158Z,65.00
2018-09-21T09:26:40.198Z,65.60
2018-09-21T09:29:14.246Z,65.70
2018-09-21T09:31:48.410Z,65.10
2018-09-21T09:34:23.049Z,65.10
2018-09-21T09:36:57.313Z,64.60
2018-09-21T09:39:31.319Z,64.70
2018-09-21T09:42:05.727Z,64.20
2018-09-21T09:44:39.806Z,64.30
2018-09-21T09:47:14.838Z,64.20
2018-09-21T09:49:49.268Z,63.00
2018-09-21T09:52:23.114Z,62.60
2018-09-21T09:54:57.579Z,62.70
2018-09-21T09:57:31.724Z,62.80
2018-09-21T10:00:06.923Z,62.60
2018-09-21T10:02:42.007Z,61.80
2018-09-21T10:05:16.316Z,61.40
2018-09-21T10:07:50.328Z,61.60
2018-09-21T10:10:28.749Z,63.60
2018-09-21T10:13:02.759Z,63.10
2018-09-21T10:15:37.878Z,64.70
2018-09-21T10:18:12.513Z,66.00
2018-09-21T10:20:47.779Z,67.00
2018-09-21T10:23:22.077Z,69.90
2018-09-21T10:25:56.077Z,74.50
2018-09-21T10:28:30.536Z,79.80
2018-09-21T10:31:04.343Z,85.00
2018-09-21T10:33:39.011Z,90.70
2018-09-21T10:36:14.183Z,93.00
2018-09-21T10:38:48.943Z,92.30
2018-09-21T10:41:23.649Z,90.50
2018-09-21T10:43:58.033Z,91.00
2018-09-21T10:46:31.937Z,91.40
2018-09-21T10:49:06.018Z,92.10
2018-09-21T10:51:40.751Z,91.80
2018-09-21T10:54:15.199Z,91.60
2018-09-21T10:56:49.553Z,92.70
2018-09-21T10:59:23.947Z,92.80
2018-09-21T11:01:57.763Z,92.70
2018-09-21T11:04:31.920Z,93.70
2018-09-21T11:07:06.841Z,94.10
2018-09-21T11:09:40.860Z,93.90
2018-09-21T11:12:15.357Z,94.50
2018-09-21T11:14:49.868Z,95.10
2018-09-21T11:17:24.078Z,95.50
2018-09-21T11:19:59.125Z,95.00
2018-09-21T11:22:33.284Z,95.50
2018-09-21T11:25:07.570Z,96.00
2018-09-21T11:27:42.027Z,95.80
2018-09-21T11:30:17.453Z,95.10
2018-09-21T11:32:52.167Z,95.50
2018-09-21T11:35:31.164Z,95.50
2018-09-21T11:38:05.355Z,95.40
2018-09-21T11:40:39.759Z,94.90
2018-09-21T11:43:14.018Z,95.30
2018-09-21T11:45:48.672Z,95.50
2018-09-21T11:48:23.001Z,96.70
2018-09-21T11:50:58.064Z,96.50
2018-09-21T11:53:32.299Z,97.20
2018-09-21T11:56:06.842Z,97.30
2018-09-21T11:58:41.543Z,97.50
2018-09-21T12:01:15.680Z,97.00
2018-09-21T12:03:49.878Z,96.80
2018-09-21T12:06:24.519Z,96.50
2018-09-21T12:08:58.673Z,96.40
2018-09-21T12:11:32.845Z,96.80
2018-09-21T12:14:06.722Z,97.10
2018-09-21T12:16:41.852Z,96.10
2018-09-21T12:19:16.744Z,96.50
2018-09-21T12:21:51.577Z,96.40
2018-09-21T12:24:25.629Z,96.00
2018-09-21T12:26:59.702Z,97.00
2018-09-21T12:29:34.585Z,96.40
2018-09-21T12:32:09.041Z,96.60
2018-09-21T12:34:43.179Z,96.10
2018-09-21T12:37:17.192Z,95.60
2018-09-21T12:39:52.298Z,95.90
2018-09-21T12:42:26.509Z,96.70
2018-09-21T12:45:02.271Z,97.90
2018-09-21T12:47:36.868Z,97.60
2018-09-21T12:50:10.802Z,97.80
2018-09-21T12:52:45.275Z,98.80
2018-09-21T12:55:20.594Z,98.40
2018-09-21T12:57:55.156Z,99.40
2018-09-21T13:00:33.599Z,98.60
2018-09-21T13:03:07.953Z,98.50
2018-09-21T13:05:42.961Z,99.10
2018-09-21T13:08:16.862Z,98.30
2018-09-21T13:10:51.184Z,98.20
2018-09-21T13:13:25.352Z,97.40
2018-09-21T13:15:59.802Z,97.20
2018-09-21T13:18:34.048Z,97.20
2018-09-21T13:21:08.166Z,96.70
2018-09-21T13:23:47.961Z,95.70
2018-09-21T13:26:23.073Z,96.40
2018-09-21T13:28:57.254Z,95.90
2018-09-21T13:31:31.969Z,96.00
2018-09-21T13:34:06.165Z,95.60
2018-09-21T13:36:40.418Z,95.90
2018-09-21T13:39:14.580Z,95.30
2018-09-21T13:41:49.023Z,95.00
2018-09-21T13:44:23.577Z,94.90
2018-09-21T13:46:57.589Z,94.80
2018-09-21T13:49:31.902Z,95.00
2018-09-21T13:52:06.203Z,95.10
2018-09-21T13:54:41.603Z,95.50
2018-09-21T13:57:16.175Z,94.80
2018-09-21T13:59:50.457Z,94.60
2018-09-21T14:02:24.834Z,94.10
2018-09-21T14:04:59.794Z,94.40
2018-09-21T14:07:33.864Z,93.90
2018-09-21T14:10:08.635Z,93.90
2018-09-21T14:12:43.677Z,93.90
2018-09-21T14:15:18.483Z,94.10
2018-09-21T14:17:53.138Z,94.00
2018-09-21T14:20:28.035Z,93.70
2018-09-21T14:23:02.712Z,94.00
2018-09-21T14:25:37.970Z,93.70
2018-09-21T14:28:12.208Z,93.70
2018-09-21T14:30:46.291Z,94.00
2018-09-21T14:33:20.469Z,93.90
2018-09-21T14:35:54.738Z,94.10
2018-09-21T14:38:29.874Z,95.30
2018-09-21T14:41:03.996Z,95.10
2018-09-21T14:43:38.293Z,93.60
2018-09-21T14:46:13.559Z,93.30
2018-09-21T14:48:48.599Z,92.50
2018-09-21T14:51:22.976Z,91.70
2018-09-21T14:53:57.636Z,91.30
2018-09-21T14:56:31.573Z,90.80
2018-09-21T14:59:05.870Z,88.70
2018-09-21T15:01:40.668Z,87.80
2018-09-21T15:04:14.792Z,84.50
2018-09-21T15:06:49.474Z,83.30
2018-09-21T15:09:24.767Z,81.50
2018-09-21T15:11:59.169Z,78.90
2018-09-21T15:14:33.640Z,78.80
2018-09-21T15:17:07.712Z,77.60
2018-09-21T15:19:42.157Z,77.40
2018-09-21T15:22:16.784Z,77.10
2018-09-21T15:24:50.843Z,77.60
2018-09-21T15:27:25.255Z,77.80
2018-09-21T15:29:59.939Z,78.50
2018-09-21T15:32:34.113Z,80.30
2018-09-21T15:35:08.180Z,78.70
2018-09-21T15:37:42.755Z,76.40
2018-09-21T15:40:17.088Z,75.90
2018-09-21T15:42:51.204Z,75.50
2018-09-21T15:45:25.466Z,76.00
2018-09-21T15:47:59.629Z,75.90
2018-09-21T15:50:35.191Z,75.50
2018-09-21T15:53:10.254Z,75.20
2018-09-21T15:55:45.790Z,75.60
2018-09-21T15:58:20.353Z,75.40
2018-09-21T16:00:54.424Z,74.60
2018-09-21T16:03:28.992Z,73.70
2018-09-21T16:06:03.365Z,74.40
2018-09-21T16:08:37.997Z,72.70
2018-09-21T16:11:12.130Z,72.40
2018-09-21T16:13:47.020Z,71.70
2018-09-21T16:16:21.860Z,71.70
2018-09-21T16:18:57.015Z,70.30
2018-09-21T16:21:31.138Z,68.70
2018-09-21T16:24:06.195Z,66.90
2018-09-21T16:26:40.497Z,64.40
2018-09-21T16:29:20.017Z,65.10
2018-09-21T16:31:54.356Z,64.80
2018-09-21T16:34:29.542Z,65.70
2018-09-21T16:37:04.033Z,66.80
2018-09-21T16:39:39.593Z,67.50
2018-09-21T16:42:13.819Z,69.50
2018-09-21T16:44:48.150Z,68.50
2018-09-21T16:47:22.203Z,68.50
2018-09-21T16:49:56.700Z,69.00
2018-09-21T16:52:30.651Z,67.60
2018-09-21T16:55:04.860Z,67.40
2018-09-21T16:57:39.139Z,66.00
2018-09-21T17:00:13.320Z,66.00
2018-09-21T17:02:47.369Z,65.90
2018-09-21T17:05:21.874Z,66.10
2018-09-21T17:07:56.362Z,66.70
2018-09-21T17:10:30.637Z,66.90
2018-09-21T17:13:04.992Z,66.80
2018-09-21T17:15:39.518Z,67.10
2018-09-21T17:18:13.909Z,68.10
2018-09-21T17:20:48.127Z,68.20
2018-09-21T17:23:23.110Z,68.30
2018-09-21T17:25:58.259Z,68.90
2018-09-21T17:28:32.602Z,69.50
2018-09-21T17:31:07.083Z,69.80
2018-09-21T17:33:41.441Z,69.20
2018-09-21T17:36:16.271Z,68.70
2018-09-21T17:38:50.387Z,69.50
2018-09-21T17:41:24.716Z,69.90
2018-09-21T17:43:59.578Z,69.70
2018-09-21T17:46:34.178Z,69.20
2018-09-21T17:49:08.783Z,69.80
2018-09-21T17:51:43.190Z,69.80
2018-09-21T17:54:17.794Z,70.10
2018-09-21T17:56:53.413Z,70.00
2018-09-21T17:59:27.650Z,69.90
2018-09-21T18:02:02.359Z,70.90
2018-09-21T18:04:38.174Z,71.00
2018-09-21T18:07:21.868Z,71.00
2018-09-21T18:09:56.317Z,70.10
2018-09-21T18:12:30.988Z,70.80
2018-09-21T18:15:05.168Z,71.90
2018-09-21T18:17:39.753Z,70.30
2018-09-21T18:20:14.892Z,70.60
2018-09-21T18:22:48.960Z,69.90
2018-09-21T18:25:23.245Z,70.80
2018-09-21T18:27:57.685Z,70.80
2018-09-21T18:30:33.058Z,70.20
2018-09-21T18:33:07.563Z,70.80
2018-09-21T18:35:42.510Z,71.00
2018-09-21T18:38:16.686Z,71.00
2018-09-21T18:40:51.105Z,71.10
2018-09-21T18:43:25.513Z,71.50
2018-09-21T18:45:59.938Z,72.20
2018-09-21T18:48:34.420Z,73.10
2018-09-21T18:51:09.094Z,73.60
2018-09-21T18:53:43.610Z,74.50
2018-09-21T18:56:18.030Z,74.00
2018-09-21T18:58:53.299Z,74.30
2018-09-21T19:01:27.591Z,73.50
2018-09-21T19:04:01.838Z,73.80
2018-09-21T19:06:36.028Z,73.40
2018-09-21T19:09:11.431Z,73.10
2018-09-21T19:11:45.828Z,71.70
2018-09-21T19:14:20.808Z,71.10
2018-09-21T19:16:55.143Z,71.20
2018-09-21T19:19:29.484Z,71.80
2018-09-21T19:22:04.068Z,70.60
2018-09-21T19:24:38.762Z,70.40
2018-09-21T19:27:13.052Z,71.70
2018-09-21T19:29:47.523Z,70.70
2018-09-21T19:32:22.029Z,69.90
2018-09-21T19:34:56.620Z,70.40
2018-09-21T19:37:31.479Z,69.20
2018-09-21T19:40:06.484Z,69.20
2018-09-21T19:42:41.579Z,69.70
2018-09-21T19:45:16.306Z,69.30
2018-09-21T19:47:50.736Z,69.80
2018-09-21T19:50:25.090Z,69.60
2018-09-21T19:52:59.143Z,68.70
2018-09-21T19:55:33.346Z,70.20
2018-09-21T19:58:08.181Z,71.60
2018-09-21T20:00:42.333Z,73.90
2018-09-21T20:03:17.162Z,74.10
2018-09-21T20:05:52.272Z,73.00
2018-09-21T20:08:26.548Z,72.60
2018-09-21T20:11:00.875Z,73.00
2018-09-21T20:13:35.877Z,73.00
2018-09-21T20:16:10.020Z,73.20
2018-09-21T20:18:44.072Z,73.80
2018-09-21T20:21:18.937Z,74.90
2018-09-21T20:23:53.129Z,73.70
2018-09-21T20:26:27.328Z,73.50
2018-09-21T20:29:01.656Z,73.40
2018-09-21T20:31:41.045Z,73.60
2018-09-21T20:34:15.229Z,73.60
2018-09-21T20:36:49.491Z,73.60
2018-09-21T20:39:24.243Z,74.40
2018-09-21T20:41:58.699Z,73.90
2018-09-21T20:44:32.678Z,73.40
2018-09-21T20:47:06.786Z,73.30
2018-09-21T20:49:40.797Z,73.20
2018-09-21T20:52:15.174Z,73.00
2018-09-21T20:54:49.528Z,73.20
2018-09-21T20:57:23.662Z,73.40
2018-09-21T20:59:57.692Z,75.50
2018-09-21T21:02:31.661Z,77.70
2018-09-21T21:05:06.571Z,79.90
2018-09-21T21:07:40.459Z,82.90
2018-09-21T21:10:14.500Z,84.90
2018-09-21T21:12:49.877Z,83.70
2018-09-21T21:15:24.740Z,85.50
2018-09-21T21:17:59.088Z,85.10
2018-09-21T21:20:33.589Z,85.00
2018-09-21T21:23:08.342Z,84.40
2018-09-21T21:25:42.287Z,85.20
2018-09-21T21:28:16.146Z,87.10
2018-09-21T21:30:50.881Z,86.40
2018-09-21T21:33:25.042Z,84.50
2018-09-21T21:35:59.367Z,85.70
2018-09-21T21:38:34.167Z,84.30
2018-09-21T21:41:08.565Z,83.10
2018-09-21T21:43:42.738Z,83.60
2018-09-21T21:46:16.800Z,84.60
2018-09-21T21:48:51.452Z,85.70
2018-09-21T21:51:26.078Z,87.80
2018-09-21T21:54:00.262Z,89.20
2018-09-21T21:56:34.124Z,90.70
2018-09-21T21:59:08.217Z,90.30
2018-09-21T22:01:44.212Z,91.10
2018-09-21T22:04:18.713Z,91.20
2018-09-21T22:06:53.321Z,92.20
2018-09-21T22:09:27.227Z,92.50
2018-09-21T22:12:06.771Z,93.60
2018-09-21T22:14:40.829Z,93.40
2018-09-21T22:17:14.727Z,93.70
2018-09-21T22:19:48.926Z,94.00
2018-09-21T22:22:22.964Z,94.60
2018-09-21T22:24:56.936Z,94.50
2018-09-21T22:27:31.363Z,95.10
2018-09-21T22:30:05.812Z,95.10
2018-09-21T22:32:40.431Z,95.50
2018-09-21T22:35:14.371Z,95.40
2018-09-21T22:37:48.351Z,95.60
2018-09-21T22:40:23.442Z,95.30
2018-09-21T22:42:58.140Z,95.80
2018-09-21T22:45:32.402Z,95.80
2018-09-21T22:48:06.388Z,95.50
2018-09-21T22:50:41.023Z,95.80
2018-09-21T22:53:15.091Z,95.90
2018-09-21T22:55:49.327Z,96.40
2018-09-21T22:58:23.613Z,96.60
2018-09-21T23:00:57.600Z,96.50
2018-09-21T23:03:32.084Z,96.00
2018-09-21T23:06:06.502Z,96.40
2018-09-21T23:08:40.539Z,96.20
2018-09-21T23:11:14.856Z,96.30
2018-09-21T23:13:49.000Z,96.40
2018-09-21T23:16:22.877Z,96.40
2018-09-21T23:18:57.557Z,96.70
2018-09-21T23:21:32.166Z,96.00
2018-09-21T23:24:05.985Z,96.70
2018-09-21T23:26:40.616Z,96.20
2018-09-21T23:29:14.996Z,96.70
2018-09-21T23:31:49.595Z,96.30
2018-09-21T23:34:23.515Z,95.90
2018-09-21T23:36:58.739Z,95.70
2018-09-21T23:39:32.837Z,96.30
2018-09-21T23:42:06.858Z,96.60
2018-09-21T23:44:41.532Z,95.80
2018-09-21T23:47:15.716Z,95.00
2018-09-21T23:49:49.722Z,94.30
2018-09-21T23:52:23.782Z,94.50
2018-09-21T23:54:58.266Z,94.60
2018-09-21T23:57:32.396Z,95.20
